createdAt,value
2023-04-25T00:00:24.224Z,99801.22
2023-04-25T00:02:53.526Z,99800.94
2023-04-25T00:05:21.621Z,99793.09
2023-04-25T00:07:49.534Z,99793.94
2023-04-25T00:10:17.565Z,99794.91
2023-04-25T00:12:45.339Z,99791.41
2023-04-25T00:15:13.846Z,99796.44
2023-04-25T00:17:41.701Z,99804.25
2023-04-25T00:20:12.374Z,99790.59
2023-04-25T00:22:40.085Z,99791.13
2023-04-25T00:25:08.960Z,99788.91
2023-04-25T00:27:36.590Z,99785.13
2023-04-25T00:30:04.670Z,99792.75
2023-04-25T00:32:32.372Z,99797.06
2023-04-25T00:35:00.163Z,99794.00
2023-04-25T00:37:29.193Z,99797.09
2023-04-25T00:39:57.038Z,99794.44
2023-04-25T00:42:24.675Z,99798.78
2023-04-25T00:44:53.639Z,99797.38
2023-04-25T00:47:21.619Z,99794.00
2023-04-25T00:49:49.370Z,99789.38
2023-04-25T00:52:17.158Z,99787.72
2023-04-25T00:54:46.241Z,99785.59
2023-04-25T00:57:14.052Z,99782.09
2023-04-25T00:59:47.185Z,99779.94
2023-04-25T01:02:15.085Z,99775.63
2023-04-25T01:04:42.803Z,99771.25
2023-04-25T01:07:11.710Z,99780.09
2023-04-25T01:09:39.644Z,99773.22
2023-04-25T01:12:08.986Z,99776.41
2023-04-25T01:14:36.752Z,99767.59
2023-04-25T01:17:04.718Z,99773.63
2023-04-25T01:19:32.778Z,99761.03
2023-04-25T01:22:01.915Z,99763.56
2023-04-25T01:24:29.774Z,99774.06
2023-04-25T01:26:58.048Z,99770.44
2023-04-25T01:29:26.012Z,99764.41
2023-04-25T01:31:54.615Z,99763.69
2023-04-25T01:34:22.524Z,99759.38
2023-04-25T01:36:51.563Z,99766.47
2023-04-25T01:39:21.188Z,99763.13
2023-04-25T01:41:49.903Z,99765.06
2023-04-25T01:44:17.699Z,99766.88
2023-04-25T01:46:45.415Z,99763.41
2023-04-25T01:49:13.347Z,99763.66
2023-04-25T01:51:41.091Z,99768.00
2023-04-25T01:54:09.744Z,99776.25
2023-04-25T01:56:41.247Z,99774.69
2023-04-25T01:59:09.627Z,99769.78
2023-04-25T02:01:37.419Z,99782.38
2023-04-25T02:04:05.491Z,99780.69
2023-04-25T02:06:33.305Z,99781.50
2023-04-25T02:09:01.004Z,99770.03
2023-04-25T02:11:28.749Z,99781.69
2023-04-25T02:13:57.731Z,99776.34
2023-04-25T02:16:26.295Z,99779.28
2023-04-25T02:18:55.019Z,99774.66
2023-04-25T02:21:22.707Z,99772.84
2023-04-25T02:23:53.189Z,99766.44
2023-04-25T02:26:22.028Z,99765.00
2023-04-25T02:28:50.159Z,99764.31
2023-04-25T02:31:19.275Z,99765.00
2023-04-25T02:33:47.077Z,99758.56
2023-04-25T02:36:14.704Z,99762.19
2023-04-25T02:38:42.524Z,99759.41
2023-04-25T02:41:10.646Z,99754.38
2023-04-25T02:43:38.343Z,99754.13
2023-04-25T02:46:06.180Z,99758.47
2023-04-25T02:48:35.235Z,99759.31
2023-04-25T02:51:02.984Z,99754.59
2023-04-25T02:53:30.699Z,99752.31
2023-04-25T02:56:00.071Z,99749.34
2023-04-25T02:58:27.851Z,99757.47
2023-04-25T03:00:56.171Z,99755.22
2023-04-25T03:03:24.056Z,99745.81
2023-04-25T03:05:54.002Z,99751.13
2023-04-25T03:08:21.817Z,99748.84
2023-04-25T03:10:51.121Z,99748.13
2023-04-25T03:13:18.780Z,99756.00
2023-04-25T03:15:46.434Z,99751.38
2023-04-25T03:18:14.094Z,99759.75
2023-04-25T03:20:42.751Z,99761.00
2023-04-25T03:23:11.833Z,99751.22
2023-04-25T03:25:39.510Z,99744.47
2023-04-25T03:28:07.219Z,99744.72
2023-04-25T03:30:35.116Z,99740.53
2023-04-25T03:33:02.874Z,99742.75
2023-04-25T03:35:30.622Z,99738.69
2023-04-25T03:37:58.256Z,99740.09
2023-04-25T03:40:27.320Z,99748.91
2023-04-25T03:42:54.997Z,99750.56
2023-04-25T03:45:22.747Z,99754.09
2023-04-25T03:47:50.867Z,99752.41
2023-04-25T03:50:18.715Z,99758.69
2023-04-25T03:52:46.350Z,99763.84
2023-04-25T03:55:14.067Z,99764.00
2023-04-25T03:57:43.098Z,99760.38
2023-04-25T04:00:11.776Z,99769.06
2023-04-25T04:02:40.622Z,99762.06
2023-04-25T04:05:10.369Z,99766.53
2023-04-25T04:07:40.784Z,99765.69
2023-04-25T04:10:09.092Z,99768.22
2023-04-25T04:12:36.684Z,99761.91
2023-04-25T04:15:06.851Z,99770.59
2023-04-25T04:17:34.834Z,99771.59
2023-04-25T04:20:02.583Z,99775.78
2023-04-25T04:22:30.359Z,99774.97
2023-04-25T04:24:58.578Z,99780.41
2023-04-25T04:27:26.264Z,99770.75
2023-04-25T04:29:54.366Z,99776.91
2023-04-25T04:32:24.300Z,99765.44
2023-04-25T04:34:53.211Z,99773.53
2023-04-25T04:37:21.025Z,99773.78
2023-04-25T04:39:48.643Z,99773.78
2023-04-25T04:42:16.647Z,99778.25
2023-04-25T04:44:45.588Z,99787.78
2023-04-25T04:47:15.054Z,99789.19
2023-04-25T04:49:44.040Z,99792.06
2023-04-25T04:52:11.731Z,99789.53
2023-04-25T04:54:39.425Z,99790.06
2023-04-25T04:57:07.069Z,99792.00
2023-04-25T04:59:34.888Z,99793.97
2023-04-25T05:02:02.599Z,99799.03
2023-04-25T05:04:30.415Z,99793.97
2023-04-25T05:06:59.503Z,99799.03
2023-04-25T05:09:27.415Z,99802.41
2023-04-25T05:11:55.145Z,99800.09
2023-04-25T05:14:23.746Z,99807.00
2023-04-25T05:16:51.648Z,99809.38
2023-04-25T05:19:19.368Z,99806.47
2023-04-25T05:21:47.026Z,99806.34
2023-04-25T05:24:16.057Z,99803.53
2023-04-25T05:26:43.852Z,99815.75
2023-04-25T05:29:11.514Z,99810.44
2023-04-25T05:31:39.261Z,99819.97
2023-04-25T05:34:07.099Z,99816.59
2023-04-25T05:36:34.807Z,99822.63
2023-04-25T05:39:02.955Z,99822.50
2023-04-25T05:41:32.038Z,99826.44
2023-04-25T05:44:00.074Z,99827.28
2023-04-25T05:46:28.225Z,99828.72
2023-04-25T05:48:56.170Z,99828.97
2023-04-25T05:51:23.981Z,99833.31
2023-04-25T05:53:52.032Z,99833.44
2023-04-25T05:56:19.957Z,99832.84
2023-04-25T05:58:49.102Z,99838.63
2023-04-25T06:01:16.944Z,99830.66
2023-04-25T06:03:44.961Z,99838.75
2023-04-25T06:06:13.411Z,99834.41
2023-04-25T06:08:42.442Z,99837.53
2023-04-25T06:11:10.169Z,99851.41
2023-04-25T06:13:37.871Z,99846.22
2023-04-25T06:16:09.491Z,99846.69
2023-04-25T06:18:37.229Z,99848.63
2023-04-25T06:21:05.258Z,99844.72
2023-04-25T06:23:33.007Z,99851.13
2023-04-25T06:26:00.735Z,99857.56
2023-04-25T06:28:28.823Z,99856.59
2023-04-25T06:30:56.585Z,99852.25
2023-04-25T06:33:25.848Z,99858.16
2023-04-25T06:35:53.788Z,99860.22
2023-04-25T06:38:21.589Z,99867.38
2023-04-25T06:40:49.260Z,99868.19
2023-04-25T06:43:17.017Z,99870.75
2023-04-25T06:45:46.371Z,99872.94
2023-04-25T06:48:16.601Z,99877.66
2023-04-25T06:50:45.801Z,99877.41
2023-04-25T06:53:13.606Z,99882.00
2023-04-25T06:55:41.406Z,99885.50
2023-04-25T06:58:09.254Z,99885.97
2023-04-25T07:00:37.165Z,99890.81
2023-04-25T07:03:05.085Z,99889.59
2023-04-25T07:05:32.840Z,99890.19
2023-04-25T07:08:02.747Z,99889.28
2023-04-25T07:10:30.578Z,99886.53
2023-04-25T07:12:58.246Z,99892.25
2023-04-25T07:15:25.866Z,99899.38
2023-04-25T07:17:53.690Z,99894.91
2023-04-25T07:20:21.811Z,99893.72
2023-04-25T07:22:49.462Z,99902.16
2023-04-25T07:25:18.907Z,99897.81
2023-04-25T07:27:46.594Z,99896.66
2023-04-25T07:30:14.831Z,99900.59
2023-04-25T07:32:42.646Z,99904.94
2023-04-25T07:35:10.961Z,99910.75
2023-04-25T07:37:38.762Z,99911.19
2023-04-25T07:40:08.803Z,99910.03
2023-04-25T07:42:37.907Z,99917.34
2023-04-25T07:45:06.356Z,99914.44
2023-04-25T07:47:34.056Z,99912.63
2023-04-25T07:50:01.887Z,99915.28
2023-04-25T07:52:29.692Z,99918.28
2023-04-25T07:54:57.628Z,99927.88
2023-04-25T07:57:27.219Z,99928.91
2023-04-25T07:59:56.236Z,99933.84
2023-04-25T08:02:23.963Z,99946.25
2023-04-25T08:04:51.996Z,99949.69
2023-04-25T08:07:20.702Z,99947.28
2023-04-25T08:09:48.353Z,99951.28
2023-04-25T08:12:16.119Z,99952.34
2023-04-25T08:14:43.749Z,99952.91
2023-04-25T08:17:13.050Z,99950.41
2023-04-25T08:19:41.104Z,99956.59
2023-04-25T08:22:08.853Z,99956.84
2023-04-25T08:24:38.783Z,99965.41
2023-04-25T08:27:07.650Z,99969.63
2023-04-25T08:29:35.842Z,99978.06
2023-04-25T08:32:03.534Z,99976.91
2023-04-25T08:34:32.611Z,99981.56
2023-04-25T08:37:00.587Z,99988.84
2023-04-25T08:39:28.410Z,99984.63
2023-04-25T08:41:56.428Z,99996.59
2023-04-25T08:44:24.566Z,99990.72
2023-04-25T08:46:54.209Z,99993.56
2023-04-25T08:49:21.916Z,99997.66
2023-04-25T08:51:52.668Z,100006.28
2023-04-25T08:54:35.326Z,100001.38
2023-04-25T08:57:06.300Z,100007.00
2023-04-25T08:59:36.641Z,99997.91
2023-04-25T09:02:05.777Z,100004.25
2023-04-25T09:04:33.594Z,100006.94
2023-04-25T09:07:02.701Z,100009.59
2023-04-25T09:09:31.824Z,100017.16
2023-04-25T09:12:00.682Z,100017.06
2023-04-25T09:14:29.468Z,100023.03
2023-04-25T09:17:02.040Z,100027.47
2023-04-25T09:22:04.718Z,100032.50
2023-04-25T09:24:37.214Z,100034.78
2023-04-25T09:27:09.059Z,100041.59
2023-04-25T09:29:38.771Z,100043.69
2023-04-25T09:32:14.977Z,100046.88
2023-04-25T09:34:43.866Z,100055.44
2023-04-25T09:37:13.577Z,100053.59
2023-04-25T09:39:41.585Z,100059.09
2023-04-25T09:42:11.575Z,100054.88
2023-04-25T09:44:43.747Z,100069.94
2023-04-25T09:47:12.169Z,100067.91
2023-04-25T09:49:42.898Z,100070.72
2023-04-25T09:52:11.505Z,100068.91
2023-04-25T09:54:40.682Z,100074.25
2023-04-25T09:57:13.686Z,100070.00
2023-04-25T09:59:45.946Z,100075.50
2023-04-25T10:02:15.010Z,100071.19
2023-04-25T10:04:43.644Z,100073.56
2023-04-25T10:07:12.682Z,100077.53
2023-04-25T10:09:42.702Z,100080.66
2023-04-25T10:12:10.660Z,100088.41
2023-04-25T10:14:38.314Z,100095.59
2023-04-25T10:17:06.059Z,100085.88
2023-04-25T10:19:34.442Z,100092.38
2023-04-25T10:22:09.846Z,100089.00
2023-04-25T10:24:38.375Z,100095.88
2023-04-25T10:27:08.117Z,100090.97
2023-04-25T10:29:37.259Z,100095.72
2023-04-25T10:32:05.640Z,100100.38
2023-04-25T10:34:41.854Z,100095.56
2023-04-25T10:37:12.457Z,100103.00
2023-04-25T10:39:42.457Z,100102.56
2023-04-25T10:42:11.562Z,100104.69
2023-04-25T10:44:40.291Z,100101.56
2023-04-25T10:47:10.640Z,100105.63
2023-04-25T10:49:40.241Z,100107.09
2023-04-25T10:52:19.854Z,100100.16
2023-04-25T10:54:53.523Z,100110.16
2023-04-25T10:57:34.356Z,100107.25
2023-04-25T11:00:06.222Z,100106.94
2023-04-25T11:02:34.390Z,100111.44
2023-04-25T11:05:02.466Z,100110.31
2023-04-25T11:07:37.499Z,100110.31
2023-04-25T11:10:06.111Z,100110.16
2023-04-25T11:12:35.590Z,100111.41
2023-04-25T11:15:05.172Z,100117.91
2023-04-25T11:17:34.187Z,100119.00
2023-04-25T11:20:02.483Z,100120.38
2023-04-25T11:22:30.882Z,100118.13
2023-04-25T11:24:58.626Z,100119.53
2023-04-25T11:27:26.787Z,100122.09
2023-04-25T11:29:55.884Z,100127.59
2023-04-25T11:32:24.724Z,100127.72
2023-04-25T11:34:54.646Z,100125.34
2023-04-25T11:37:22.557Z,100129.97
2023-04-25T11:39:50.333Z,100137.00
2023-04-25T11:42:18.234Z,100136.00
2023-04-25T11:44:45.982Z,100128.41
2023-04-25T11:47:15.111Z,100133.75
2023-04-25T11:49:42.812Z,100138.13
2023-04-25T11:52:10.701Z,100138.13
2023-04-25T11:54:38.861Z,100144.72
2023-04-25T11:57:06.704Z,100145.00
2023-04-25T11:59:34.522Z,100142.63
2023-04-25T12:02:02.806Z,100146.53
2023-04-25T12:04:33.484Z,100149.38
2023-04-25T12:07:02.706Z,100149.91
2023-04-25T12:09:32.268Z,100157.41
2023-04-25T12:12:03.721Z,100159.78
2023-04-25T12:14:33.385Z,100156.53
2023-04-25T12:17:03.478Z,100156.84
2023-04-25T12:19:36.720Z,100159.66
2023-04-25T12:22:05.294Z,100154.88
2023-04-25T12:24:39.130Z,100156.41
2023-04-25T12:27:09.431Z,100145.16
2023-04-25T12:29:49.455Z,100155.72
2023-04-25T12:32:18.175Z,100151.75
2023-04-25T12:34:47.412Z,100148.34
2023-04-25T12:37:16.091Z,100161.69
2023-04-25T12:39:44.128Z,100159.56
2023-04-25T12:42:13.115Z,100152.06
2023-04-25T12:44:41.626Z,100161.66
2023-04-25T12:47:09.570Z,100158.28
2023-04-25T12:49:38.502Z,100161.56
2023-04-25T12:52:07.719Z,100169.81
2023-04-25T12:54:36.376Z,100169.28
2023-04-25T12:57:04.567Z,100160.69
2023-04-25T12:59:32.373Z,100166.72
2023-04-25T13:02:00.446Z,100163.22
2023-04-25T13:04:28.790Z,100163.81
2023-04-25T13:06:56.963Z,100160.72
2023-04-25T13:09:26.281Z,100161.84
2023-04-25T13:11:56.289Z,100167.06
2023-04-25T13:14:26.239Z,100163.56
2023-04-25T13:16:54.164Z,100167.75
2023-04-25T13:19:22.196Z,100171.97
2023-04-25T13:21:50.129Z,100171.84
2023-04-25T13:24:17.967Z,100169.75
2023-04-25T13:26:47.246Z,100179.06
2023-04-25T13:29:15.023Z,100175.69
2023-04-25T13:31:42.810Z,100171.75
2023-04-25T13:34:11.377Z,100170.91
2023-04-25T13:36:39.137Z,100178.91
2023-04-25T13:39:07.015Z,100175.69
2023-04-25T13:41:34.912Z,100176.94
2023-04-25T13:44:04.116Z,100185.81
2023-04-25T13:46:45.419Z,100186.06
2023-04-25T13:49:14.560Z,100182.84
2023-04-25T13:51:43.206Z,100180.16
2023-04-25T13:54:11.005Z,100185.66
2023-04-25T13:56:39.602Z,100193.66
2023-04-25T13:59:08.704Z,100194.94
2023-04-25T14:01:37.152Z,100192.97
2023-04-25T14:04:06.202Z,100200.88
2023-04-25T14:06:34.583Z,100199.47
2023-04-25T14:09:02.690Z,100202.56
2023-04-25T14:11:30.685Z,100200.59
2023-04-25T14:13:58.472Z,100197.91
2023-04-25T14:16:27.620Z,100201.16
2023-04-25T14:18:55.785Z,100193.16
2023-04-25T14:21:23.682Z,100191.59
2023-04-25T14:23:51.717Z,100192.03
2023-04-25T14:26:19.766Z,100191.03
2023-04-25T14:28:47.408Z,100191.91
2023-04-25T14:31:15.193Z,100201.19
2023-04-25T14:33:44.434Z,100201.88
2023-04-25T14:36:12.277Z,100204.81
2023-04-25T14:38:39.969Z,100193.72
2023-04-25T14:41:07.749Z,100193.44
2023-04-25T14:43:35.411Z,100200.06
2023-04-25T14:46:03.215Z,100192.31
2023-04-25T14:48:31.255Z,100201.44
2023-04-25T14:51:01.589Z,100196.94
2023-04-25T14:53:29.496Z,100198.16
2023-04-25T14:55:57.627Z,100196.47
2023-04-25T14:58:25.471Z,100196.50
2023-04-25T15:00:53.575Z,100206.00
2023-04-25T15:03:21.583Z,100206.66
2023-04-25T15:05:49.342Z,100215.38
2023-04-25T15:08:19.150Z,100218.94
2023-04-25T15:10:48.133Z,100216.00
2023-04-25T15:13:16.401Z,100223.75
2023-04-25T15:15:44.204Z,100216.75
2023-04-25T15:18:12.168Z,100216.03
2023-04-25T15:20:40.022Z,100217.47
2023-04-25T15:23:07.820Z,100211.81
2023-04-25T15:25:36.822Z,100223.69
2023-04-25T15:28:04.796Z,100217.09
2023-04-25T15:30:32.603Z,100226.41
2023-04-25T15:33:00.391Z,100223.34
2023-04-25T15:35:28.305Z,100217.56
2023-04-25T15:37:56.000Z,100230.78
2023-04-25T15:40:23.888Z,100233.75
2023-04-25T15:42:53.721Z,100232.06
2023-04-25T15:45:24.265Z,100227.44
2023-04-25T15:47:52.826Z,100217.75
2023-04-25T15:50:21.156Z,100222.53
2023-04-25T15:52:50.250Z,100234.78
2023-04-25T15:55:18.530Z,100234.22
2023-04-25T15:57:46.489Z,100228.44
2023-04-25T16:00:17.592Z,100249.97
2023-04-25T16:02:47.028Z,100242.66
2023-04-25T16:05:15.757Z,100239.13
2023-04-25T16:07:44.984Z,100245.59
2023-04-25T16:10:13.742Z,100256.72
2023-04-25T16:12:41.755Z,100263.47
2023-04-25T16:15:10.200Z,100255.16
2023-04-25T16:17:39.357Z,100257.84
2023-04-25T16:20:10.313Z,100256.28
2023-04-25T16:22:39.659Z,100260.31
2023-04-25T16:25:08.225Z,100258.81
2023-04-25T16:27:37.909Z,100261.06
2023-04-25T16:30:08.090Z,100260.16
2023-04-25T16:32:36.160Z,100257.66
2023-04-25T16:35:07.714Z,100261.59
2023-04-25T16:37:35.446Z,100256.75
2023-04-25T16:40:03.314Z,100260.00
2023-04-25T16:42:31.013Z,100260.31
2023-04-25T16:44:58.797Z,100258.72
2023-04-25T16:47:26.511Z,100261.97
2023-04-25T16:49:54.316Z,100260.56
2023-04-25T16:52:23.899Z,100261.81
2023-04-25T16:54:51.821Z,100262.09
2023-04-25T16:57:19.516Z,100274.28
2023-04-25T16:59:47.214Z,100276.38
2023-04-25T17:02:16.145Z,100274.97
2023-04-25T17:04:43.914Z,100286.34
2023-04-25T17:07:11.868Z,100286.44
2023-04-25T17:09:40.966Z,100288.50
2023-04-25T17:12:09.119Z,100286.50
2023-04-25T17:14:37.193Z,100288.19
2023-04-25T17:17:05.204Z,100286.50
2023-04-25T17:19:33.057Z,100286.75
2023-04-25T17:22:00.749Z,100289.81
2023-04-25T17:24:28.544Z,100289.94
2023-04-25T17:26:57.613Z,100300.75
2023-04-25T17:29:26.816Z,100304.28
2023-04-25T17:31:54.614Z,100298.34
2023-04-25T17:34:22.347Z,100309.16
2023-04-25T17:36:50.145Z,100303.81
2023-04-25T17:39:18.022Z,100310.16
2023-04-25T17:41:45.848Z,100315.00
2023-04-25T17:44:15.016Z,100317.69
2023-04-25T17:46:42.792Z,100324.00
2023-04-25T17:49:11.666Z,100320.03
2023-04-25T17:51:39.473Z,100323.22
2023-04-25T17:54:08.233Z,100322.50
2023-04-25T17:56:38.661Z,100328.81
2023-04-25T17:59:06.401Z,100326.13
2023-04-25T18:01:35.972Z,100333.09
2023-04-25T18:04:05.362Z,100335.06
2023-04-25T18:06:33.829Z,100340.38
2023-04-25T18:09:02.500Z,100341.84
2023-04-25T18:11:30.920Z,100337.75
2023-04-25T18:13:58.786Z,100352.53
2023-04-25T18:16:26.745Z,100346.22
2023-04-25T18:19:05.146Z,100353.50
2023-04-25T18:21:32.969Z,100361.34
2023-04-25T18:24:01.223Z,100359.56
2023-04-25T18:26:31.208Z,100354.59
2023-04-25T18:28:59.120Z,100355.69
2023-04-25T18:31:26.949Z,100359.47
2023-04-25T18:33:56.162Z,100365.16
2023-04-25T18:36:23.918Z,100374.25
2023-04-25T18:38:56.237Z,100377.19
2023-04-25T18:41:51.136Z,100377.56
2023-04-25T18:44:13.767Z,100380.72
2023-04-25T18:46:43.636Z,100388.50
2023-04-25T18:49:13.149Z,100391.41
2023-04-25T18:51:41.576Z,100385.72
2023-04-25T18:54:11.071Z,100386.94
2023-04-25T18:56:38.822Z,100393.59
2023-04-25T18:59:06.689Z,100400.16
2023-04-25T19:01:34.873Z,100401.72
2023-04-25T19:04:05.232Z,100399.19
2023-04-25T19:06:35.581Z,100403.78
2023-04-25T19:09:03.792Z,100402.94
2023-04-25T19:11:31.561Z,100402.44
2023-04-25T19:14:01.069Z,100402.72
2023-04-25T19:16:28.811Z,100401.88
2023-04-25T19:18:58.449Z,100409.84
2023-04-25T19:21:27.221Z,100410.69
2023-04-25T19:23:57.004Z,100414.75
2023-04-25T19:26:25.231Z,100415.03
2023-04-25T19:29:05.736Z,100412.69
2023-04-25T19:31:34.635Z,100425.53
2023-04-25T19:34:02.443Z,100430.13
2023-04-25T19:36:30.205Z,100426.13
2023-04-25T19:39:02.796Z,100417.41
2023-04-25T19:41:31.611Z,100420.19
2023-04-25T19:44:00.890Z,100421.28
2023-04-25T19:46:28.730Z,100417.91
2023-04-25T19:48:56.554Z,100425.25
2023-04-25T19:51:24.477Z,100434.44
2023-04-25T19:53:54.422Z,100431.66
2023-04-25T19:56:24.494Z,100436.38
2023-04-25T19:58:52.728Z,100447.00
2023-04-25T20:01:22.271Z,100443.63
2023-04-25T20:03:51.795Z,100449.06
2023-04-25T20:06:20.149Z,100445.56
2023-04-25T20:08:48.143Z,100446.63
2023-04-25T20:11:16.128Z,100444.81
2023-04-25T20:13:45.449Z,100444.94
2023-04-25T20:16:13.593Z,100452.06
2023-04-25T20:18:41.610Z,100442.38
2023-04-25T20:21:09.522Z,100451.56
2023-04-25T20:23:37.483Z,100448.63
2023-04-25T20:26:05.259Z,100450.06
2023-04-25T20:28:33.158Z,100457.06
2023-04-25T20:31:02.508Z,100450.91
2023-04-25T20:33:30.293Z,100450.91
2023-04-25T20:35:58.498Z,100454.53
2023-04-25T20:38:26.745Z,100450.41
2023-04-25T20:40:56.363Z,100448.94
2023-04-25T20:43:25.866Z,100441.94
2023-04-25T20:45:54.883Z,100449.28
2023-04-25T20:48:24.297Z,100450.22
2023-04-25T20:50:52.121Z,100455.16
2023-04-25T20:53:19.874Z,100451.03
2023-04-25T20:55:48.134Z,100453.81
2023-04-25T20:58:16.178Z,100456.72
2023-04-25T21:00:44.047Z,100452.44
2023-04-25T21:03:13.074Z,100456.91
2023-04-25T21:05:42.456Z,100460.56
2023-04-25T21:08:10.277Z,100465.00
2023-04-25T21:10:38.083Z,100465.34
2023-04-25T21:13:06.094Z,100472.13
2023-04-25T21:15:33.905Z,100470.31
2023-04-25T21:18:01.717Z,100473.09
2023-04-25T21:20:29.462Z,100482.03
2023-04-25T21:22:58.413Z,100479.25
2023-04-25T21:25:31.015Z,100474.25
2023-04-25T21:27:59.295Z,100475.44
2023-04-25T21:30:27.381Z,100477.63
2023-04-25T21:32:56.184Z,100482.41
2023-04-25T21:35:24.341Z,100482.00
2023-04-25T21:37:52.520Z,100484.13
2023-04-25T21:40:22.028Z,100487.97
2023-04-25T21:42:52.630Z,100488.31
2023-04-25T21:45:20.842Z,100483.53
2023-04-25T21:47:48.896Z,100485.78
2023-04-25T21:50:16.810Z,100493.44
2023-04-25T21:52:44.353Z,100493.97
2023-04-25T21:55:12.315Z,100494.50
2023-04-25T21:57:41.336Z,100501.06
2023-04-25T22:00:20.673Z,100499.66
2023-04-25T22:02:48.621Z,100511.44
2023-04-25T22:05:16.650Z,100515.50
2023-04-25T22:07:44.487Z,100517.69
2023-04-25T22:10:12.281Z,100518.25
2023-04-25T22:12:41.360Z,100517.69
2023-04-25T22:15:10.588Z,100510.66
2023-04-25T22:17:38.825Z,100516.09
2023-04-25T22:20:10.469Z,100515.34
2023-04-25T22:22:38.089Z,100512.06
2023-04-25T22:25:07.390Z,100522.00
2023-04-25T22:27:35.242Z,100518.31
2023-04-25T22:30:04.677Z,100522.00
2023-04-25T22:32:32.689Z,100524.03
2023-04-25T22:35:00.275Z,100524.13
2023-04-25T22:37:28.789Z,100523.50
2023-04-25T22:39:56.383Z,100528.06
2023-04-25T22:42:24.199Z,100524.75
2023-04-25T22:44:52.931Z,100533.53
2023-04-25T22:47:24.648Z,100541.59
2023-04-25T22:49:56.121Z,100539.25
2023-04-25T22:52:23.964Z,100535.00
2023-04-25T22:54:51.625Z,100538.81
2023-04-25T22:57:21.342Z,100534.44
2023-04-25T22:59:48.983Z,100542.63
2023-04-25T23:02:16.603Z,100552.56
2023-04-25T23:04:45.726Z,100545.84
2023-04-25T23:07:13.581Z,100545.09
2023-04-25T23:09:41.811Z,100544.53
2023-04-25T23:12:09.893Z,100545.81
2023-04-25T23:14:37.492Z,100549.50
2023-04-25T23:17:05.210Z,100548.06
2023-04-25T23:19:34.371Z,100551.03
2023-04-25T23:22:04.203Z,100552.09
2023-04-25T23:24:31.836Z,100553.22
2023-04-25T23:26:59.529Z,100554.06
2023-04-25T23:29:27.069Z,100544.44
2023-04-25T23:31:54.832Z,100560.34
2023-04-25T23:34:22.525Z,100555.03
2023-04-25T23:36:50.263Z,100551.81
2023-04-25T23:39:19.797Z,100553.78
2023-04-25T23:41:47.381Z,100563.56
2023-04-25T23:44:14.995Z,100565.53
2023-04-25T23:46:42.714Z,100560.53
2023-04-25T23:49:10.384Z,100564.41
2023-04-25T23:51:37.937Z,100558.53
2023-04-25T23:54:05.641Z,100563.38
2023-04-25T23:56:34.716Z,100561.88
2023-04-25T23:59:02.278Z,100568.28
